createdAt,value
2022-11-27T00:01:35.849Z,3.40
2022-11-27T00:04:05.655Z,3.70
2022-11-27T00:06:35.184Z,3.70
2022-11-27T00:09:06.751Z,3.60
2022-11-27T00:11:35.584Z,3.70
2022-11-27T00:14:04.096Z,3.50
2022-11-27T00:16:32.766Z,3.50
2022-11-27T00:19:01.312Z,3.40
2022-11-27T00:21:32.876Z,3.20
2022-11-27T00:24:03.067Z,3.00
2022-11-27T00:26:37.479Z,3.00
2022-11-27T00:29:03.225Z,2.90
2022-11-27T00:31:33.861Z,3.00
2022-11-27T00:34:05.673Z,3.10
2022-11-27T00:36:36.081Z,3.10
2022-11-27T00:39:05.519Z,3.00
2022-11-27T00:41:34.098Z,3.10
2022-11-27T00:44:02.689Z,3.30
2022-11-27T00:46:32.660Z,3.60
2022-11-27T00:49:03.244Z,3.30
2022-11-27T00:51:32.601Z,3.40
2022-11-27T00:54:01.678Z,3.10
2022-11-27T00:56:33.434Z,2.90
2022-11-27T00:59:02.488Z,2.70
2022-11-27T01:01:33.542Z,2.70
2022-11-27T01:04:03.632Z,2.80
2022-11-27T01:06:32.446Z,2.60
2022-11-27T01:09:01.124Z,2.50
2022-11-27T01:11:32.475Z,2.50
2022-11-27T01:14:03.619Z,2.50
2022-11-27T01:16:33.474Z,2.40
2022-11-27T01:19:03.512Z,2.50
2022-11-27T01:21:34.686Z,2.40
2022-11-27T01:24:04.619Z,2.40
2022-11-27T01:26:33.397Z,2.40
2022-11-27T01:29:01.823Z,2.40
2022-11-27T01:31:32.608Z,2.20
2022-11-27T01:34:07.175Z,2.10
2022-11-27T01:36:36.831Z,2.10
2022-11-27T01:39:06.069Z,2.10
2022-11-27T01:41:37.238Z,2.20
2022-11-27T01:44:27.086Z,2.10
2022-11-27T01:47:04.433Z,2.10
2022-11-27T01:49:50.958Z,2.00
2022-11-27T01:52:26.635Z,1.90
2022-11-27T01:55:04.183Z,1.90
2022-11-27T01:57:38.898Z,1.80
2022-11-27T02:00:10.028Z,1.80
2022-11-27T02:02:38.530Z,1.70
2022-11-27T02:05:14.263Z,1.50
2022-11-27T02:07:42.918Z,1.50
2022-11-27T02:10:12.034Z,1.40
2022-11-27T02:12:55.490Z,1.30
2022-11-27T02:15:32.952Z,1.30
2022-11-27T02:18:16.275Z,1.40
2022-11-27T02:20:47.974Z,1.40
2022-11-27T02:23:28.572Z,1.40
2022-11-27T02:26:05.706Z,1.30
2022-11-27T02:28:40.023Z,1.20
2022-11-27T02:31:17.375Z,1.20
2022-11-27T02:33:49.292Z,1.00
2022-11-27T02:36:23.309Z,1.10
2022-11-27T02:39:09.623Z,1.10
2022-11-27T02:41:44.502Z,0.90
2022-11-27T02:44:13.698Z,0.80
2022-11-27T02:46:43.243Z,0.80
2022-11-27T02:49:14.802Z,0.80
2022-11-27T02:51:49.081Z,0.90
2022-11-27T02:54:23.329Z,0.90
2022-11-27T02:56:54.320Z,0.90
2022-11-27T02:59:24.804Z,0.80
2022-11-27T03:01:56.350Z,0.70
2022-11-27T03:04:27.968Z,0.80
2022-11-27T03:06:59.637Z,1.10
2022-11-27T03:09:34.100Z,0.80
2022-11-27T03:12:04.815Z,0.60
2022-11-27T03:14:34.530Z,0.50
2022-11-27T03:17:21.068Z,0.70
2022-11-27T03:19:58.236Z,0.80
2022-11-27T03:22:27.821Z,0.90
2022-11-27T03:24:56.616Z,1.00
2022-11-27T03:27:34.211Z,2.00
2022-11-27T03:30:05.835Z,1.90
2022-11-27T03:32:34.665Z,1.70
2022-11-27T03:35:04.367Z,2.30
2022-11-27T03:37:33.015Z,2.80
2022-11-27T03:40:01.768Z,3.10
2022-11-27T03:42:54.398Z,3.20
2022-11-27T03:45:34.402Z,3.70
2022-11-27T03:48:08.916Z,3.80
2022-11-27T03:50:52.504Z,4.30
2022-11-27T03:53:40.382Z,4.00
2022-11-27T03:56:14.476Z,4.10
2022-11-27T03:58:54.831Z,4.40
2022-11-27T04:01:26.364Z,4.40
2022-11-27T04:03:54.970Z,4.50
2022-11-27T04:06:23.462Z,4.60
2022-11-27T04:08:52.069Z,4.40
2022-11-27T04:11:20.655Z,4.30
2022-11-27T04:13:49.207Z,4.40
2022-11-27T04:16:17.810Z,4.00
2022-11-27T04:18:46.409Z,3.90
2022-11-27T04:21:14.954Z,3.70
2022-11-27T04:23:43.894Z,3.90
2022-11-27T04:26:12.402Z,3.90
2022-11-27T04:28:40.927Z,3.90
2022-11-27T04:31:09.487Z,4.00
2022-11-27T04:33:38.015Z,4.20
2022-11-27T04:36:06.910Z,4.70
2022-11-27T04:38:35.363Z,4.90
2022-11-27T04:41:03.813Z,4.70
2022-11-27T04:43:32.266Z,4.70
2022-11-27T04:46:00.860Z,4.80
2022-11-27T04:48:29.331Z,4.90
2022-11-27T04:50:57.829Z,5.00
2022-11-27T04:53:26.350Z,5.00
2022-11-27T04:55:54.788Z,4.90
2022-11-27T04:58:23.235Z,5.10
2022-11-27T05:00:51.781Z,5.10
2022-11-27T05:03:20.398Z,5.10
2022-11-27T05:05:56.948Z,5.40
2022-11-27T05:08:27.435Z,5.30
2022-11-27T05:11:04.172Z,5.40
2022-11-27T05:13:33.007Z,5.40
2022-11-27T05:16:01.652Z,5.50
2022-11-27T05:18:30.231Z,5.50
2022-11-27T05:21:03.130Z,5.80
2022-11-27T05:23:32.176Z,5.90
2022-11-27T05:26:00.704Z,5.90
2022-11-27T05:28:29.251Z,5.90
2022-11-27T05:30:57.912Z,5.90
2022-11-27T05:33:26.388Z,6.00
2022-11-27T05:35:54.881Z,6.10
2022-11-27T05:38:23.325Z,6.00
2022-11-27T05:40:51.831Z,6.20
2022-11-27T05:43:20.281Z,6.20
2022-11-27T05:45:48.820Z,6.10
2022-11-27T05:48:17.404Z,6.20
2022-11-27T05:50:45.998Z,6.20
2022-11-27T05:53:14.567Z,6.20
2022-11-27T05:55:43.022Z,6.10
2022-11-27T05:58:11.598Z,6.20
2022-11-27T06:00:40.086Z,6.20
2022-11-27T06:03:08.760Z,6.20
2022-11-27T06:05:41.684Z,6.20
2022-11-27T06:08:10.151Z,6.20
2022-11-27T06:10:40.225Z,6.20
2022-11-27T06:13:09.091Z,6.20
2022-11-27T06:15:38.559Z,6.20
2022-11-27T06:18:07.626Z,6.20
2022-11-27T06:20:40.830Z,6.20
2022-11-27T06:23:06.338Z,6.10
2022-11-27T06:25:34.940Z,6.00
2022-11-27T06:28:03.509Z,6.10
2022-11-27T06:30:32.084Z,6.20
2022-11-27T06:33:00.567Z,6.00
2022-11-27T06:35:29.336Z,5.90
2022-11-27T06:37:57.960Z,5.80
2022-11-27T06:40:26.544Z,5.70
2022-11-27T06:42:55.080Z,5.70
2022-11-27T06:45:23.743Z,5.50
2022-11-27T06:47:52.262Z,5.40
2022-11-27T06:50:20.756Z,5.30
2022-11-27T06:52:49.220Z,5.30
2022-11-27T06:55:17.936Z,5.50
2022-11-27T06:57:46.467Z,5.60
2022-11-27T07:00:15.478Z,5.70
2022-11-27T07:02:43.894Z,5.70
2022-11-27T07:05:12.354Z,5.90
2022-11-27T07:07:43.793Z,6.00
2022-11-27T07:10:11.345Z,6.20
2022-11-27T07:12:39.872Z,6.10
2022-11-27T07:15:09.395Z,6.20
2022-11-27T07:17:37.983Z,6.20
2022-11-27T07:20:07.394Z,6.10
2022-11-27T07:22:35.834Z,6.10
2022-11-27T07:25:04.732Z,6.20
2022-11-27T07:27:33.214Z,6.30
2022-11-27T07:30:01.720Z,6.40
2022-11-27T07:32:31.958Z,6.50
2022-11-27T07:35:00.517Z,6.50
2022-11-27T07:37:33.719Z,6.60
2022-11-27T07:40:03.444Z,6.70
2022-11-27T07:42:39.657Z,6.70
2022-11-27T07:45:02.422Z,6.90
2022-11-27T07:47:31.159Z,7.00
2022-11-27T07:50:00.438Z,7.10
2022-11-27T07:52:29.061Z,7.10
2022-11-27T07:54:57.904Z,7.20
2022-11-27T07:57:27.560Z,7.30
2022-11-27T07:59:56.012Z,7.30
2022-11-27T08:02:24.534Z,7.40
2022-11-27T08:04:53.202Z,7.40
2022-11-27T08:07:21.822Z,7.40
2022-11-27T08:09:50.271Z,7.50
2022-11-27T08:12:18.766Z,7.40
2022-11-27T08:14:47.183Z,7.50
2022-11-27T08:17:15.624Z,7.60
2022-11-27T08:19:44.073Z,7.60
2022-11-27T08:22:19.046Z,7.70
2022-11-27T08:24:48.153Z,7.60
2022-11-27T08:27:16.744Z,7.60
2022-11-27T08:29:45.429Z,7.70
2022-11-27T08:32:15.208Z,7.70
2022-11-27T08:34:43.873Z,7.70
2022-11-27T08:37:12.367Z,7.80
2022-11-27T08:39:40.916Z,7.80
2022-11-27T08:42:09.357Z,8.00
2022-11-27T08:44:37.942Z,8.30
2022-11-27T08:47:06.599Z,8.70
2022-11-27T08:49:36.208Z,9.10
2022-11-27T08:52:05.404Z,9.70
2022-11-27T08:54:33.880Z,10.10
2022-11-27T08:57:02.330Z,10.10
2022-11-27T08:59:30.794Z,10.10
2022-11-27T09:01:59.383Z,9.80
2022-11-27T09:04:28.905Z,9.90
2022-11-27T09:06:58.648Z,9.70
2022-11-27T09:09:27.752Z,9.60
2022-11-27T09:11:56.354Z,9.40
2022-11-27T09:14:24.889Z,9.50
2022-11-27T09:16:53.819Z,9.60
2022-11-27T09:19:22.471Z,9.30
2022-11-27T09:21:51.170Z,9.30
2022-11-27T09:24:19.599Z,9.40
2022-11-27T09:26:48.117Z,9.30
2022-11-27T09:29:16.628Z,9.20
2022-11-27T09:31:46.463Z,9.20
2022-11-27T09:34:15.436Z,9.30
2022-11-27T09:36:45.414Z,9.20
2022-11-27T09:39:15.541Z,9.30
2022-11-27T09:41:53.495Z,9.30
2022-11-27T09:44:40.588Z,9.30
2022-11-27T09:47:24.033Z,9.40
2022-11-27T09:49:58.346Z,9.40
2022-11-27T09:52:35.807Z,9.40
2022-11-27T09:55:16.290Z,9.40
2022-11-27T09:57:48.262Z,9.50
2022-11-27T10:00:19.769Z,9.60
2022-11-27T10:02:48.438Z,9.80
2022-11-27T10:05:25.827Z,9.90
2022-11-27T10:08:06.574Z,9.80
2022-11-27T10:10:50.921Z,9.90
2022-11-27T10:13:24.876Z,9.80
2022-11-27T10:15:56.494Z,9.70
2022-11-27T10:18:51.888Z,9.70
2022-11-27T10:21:43.081Z,9.70
2022-11-27T10:24:14.652Z,9.70
2022-11-27T10:26:46.236Z,9.70
2022-11-27T10:29:29.919Z,9.70
2022-11-27T10:32:01.420Z,9.70
2022-11-27T10:34:42.415Z,9.80
2022-11-27T10:37:34.973Z,9.90
2022-11-27T10:40:16.667Z,9.90
2022-11-27T10:42:53.823Z,9.90
2022-11-27T10:45:40.198Z,10.00
2022-11-27T10:48:08.765Z,10.00
2022-11-27T10:50:37.412Z,10.20
2022-11-27T10:53:09.189Z,10.30
2022-11-27T10:56:15.486Z,10.40
2022-11-27T10:59:14.192Z,10.50
2022-11-27T11:01:47.880Z,10.70
2022-11-27T11:04:48.407Z,10.50
2022-11-27T11:06:50.583Z,10.50
2022-11-27T11:09:30.959Z,10.50
2022-11-27T11:12:18.937Z,10.50
2022-11-27T11:14:59.233Z,10.40
2022-11-27T11:17:32.321Z,10.50
2022-11-27T11:20:01.337Z,10.50
2022-11-27T11:22:31.427Z,10.50
2022-11-27T11:25:00.130Z,10.50
2022-11-27T11:27:32.160Z,10.50
2022-11-27T11:30:03.270Z,10.50
2022-11-27T11:32:37.216Z,10.50
2022-11-27T11:35:29.119Z,10.50
2022-11-27T11:37:58.932Z,10.50
2022-11-27T11:40:30.416Z,10.50
2022-11-27T11:43:02.463Z,10.50
2022-11-27T11:45:33.359Z,10.50
2022-11-27T11:48:23.380Z,10.60
2022-11-27T11:51:00.787Z,10.70
2022-11-27T11:53:37.893Z,10.60
2022-11-27T11:56:29.020Z,10.60
2022-11-27T11:59:06.176Z,10.70
2022-11-27T12:01:55.776Z,10.80
2022-11-27T12:04:45.485Z,10.90
2022-11-27T12:07:26.394Z,11.10
2022-11-27T12:10:15.773Z,11.30
2022-11-27T12:13:02.187Z,11.40
2022-11-27T12:15:45.738Z,11.60
2022-11-27T12:18:29.272Z,11.50
2022-11-27T12:21:06.631Z,11.50
2022-11-27T12:23:54.947Z,11.50
2022-11-27T12:26:35.049Z,11.40
2022-11-27T12:29:29.399Z,11.40
2022-11-27T12:32:21.613Z,11.30
2022-11-27T12:35:05.148Z,11.40
2022-11-27T12:37:51.409Z,11.60
2022-11-27T12:40:37.775Z,11.80
2022-11-27T12:43:15.383Z,11.80
2022-11-27T12:46:04.917Z,11.90
2022-11-27T12:48:36.862Z,11.70
2022-11-27T12:51:13.988Z,11.80
2022-11-27T12:53:53.003Z,11.90
2022-11-27T12:56:27.426Z,11.90
2022-11-27T12:59:04.657Z,11.80
2022-11-27T13:01:39.155Z,11.70
2022-11-27T13:04:27.392Z,11.70
2022-11-27T13:07:19.946Z,11.80
2022-11-27T13:10:08.927Z,11.70
2022-11-27T13:12:40.521Z,11.70
2022-11-27T13:15:15.418Z,11.70
2022-11-27T13:17:44.591Z,11.80
2022-11-27T13:20:25.008Z,11.80
2022-11-27T13:22:53.708Z,11.80
2022-11-27T13:25:23.104Z,11.70
2022-11-27T13:27:53.548Z,11.60
2022-11-27T13:30:25.340Z,11.40
2022-11-27T13:33:01.665Z,11.40
2022-11-27T13:35:36.407Z,11.20
2022-11-27T13:38:13.795Z,11.10
2022-11-27T13:40:44.663Z,11.00
2022-11-27T13:43:32.398Z,10.90
2022-11-27T13:46:11.771Z,10.90
2022-11-27T13:48:42.915Z,10.80
2022-11-27T13:51:12.790Z,10.80
2022-11-27T13:53:43.051Z,10.80
2022-11-27T13:56:11.610Z,10.70
2022-11-27T13:58:42.460Z,10.40
2022-11-27T14:01:17.092Z,10.30
2022-11-27T14:03:46.147Z,10.30
2022-11-27T14:06:26.668Z,10.30
2022-11-27T14:09:03.791Z,10.30
2022-11-27T14:11:35.370Z,10.30
2022-11-27T14:14:06.986Z,10.30
2022-11-27T14:16:38.924Z,10.30
2022-11-27T14:19:13.041Z,10.30
2022-11-27T14:21:44.026Z,10.30
2022-11-27T14:24:41.801Z,10.20
2022-11-27T14:27:25.426Z,10.10
2022-11-27T14:29:54.028Z,10.10
2022-11-27T14:32:22.635Z,10.10
2022-11-27T14:34:51.293Z,10.00
2022-11-27T14:37:25.509Z,10.00
2022-11-27T14:39:54.365Z,10.00
2022-11-27T14:42:28.893Z,9.90
2022-11-27T14:45:07.257Z,9.90
2022-11-27T14:47:36.728Z,9.90
2022-11-27T14:50:13.246Z,9.90
2022-11-27T14:52:43.834Z,9.90
2022-11-27T14:55:16.950Z,9.90
2022-11-27T14:57:48.052Z,9.90
2022-11-27T15:00:26.648Z,9.80
2022-11-27T15:02:55.503Z,9.70
2022-11-27T15:05:29.302Z,9.70
2022-11-27T15:08:01.405Z,9.70
2022-11-27T15:10:39.027Z,9.70
2022-11-27T15:13:10.124Z,9.60
2022-11-27T15:15:44.308Z,9.60
2022-11-27T15:18:18.606Z,9.50
2022-11-27T15:20:47.524Z,9.40
2022-11-27T15:23:18.870Z,9.50
2022-11-27T15:25:50.508Z,9.50
2022-11-27T15:28:30.848Z,9.50
2022-11-27T15:31:00.089Z,9.50
2022-11-27T15:33:35.182Z,9.50
2022-11-27T15:36:21.116Z,9.50
2022-11-27T15:38:52.786Z,9.40
2022-11-27T15:41:26.868Z,9.50
2022-11-27T15:43:56.868Z,9.60
2022-11-27T15:46:31.355Z,9.50
2022-11-27T15:49:00.035Z,9.30
2022-11-27T15:51:30.102Z,8.90
2022-11-27T15:53:58.658Z,8.80
2022-11-27T15:56:27.584Z,8.90
2022-11-27T15:58:56.100Z,8.80
2022-11-27T16:01:24.806Z,8.90
2022-11-27T16:03:53.349Z,8.80
2022-11-27T16:06:23.514Z,8.70
2022-11-27T16:09:02.260Z,8.60
2022-11-27T16:11:32.543Z,8.60
2022-11-27T16:14:01.181Z,8.60
2022-11-27T16:16:29.919Z,8.50
2022-11-27T16:19:00.716Z,8.60
2022-11-27T16:21:32.885Z,8.60
2022-11-27T16:24:03.970Z,8.70
2022-11-27T16:26:32.864Z,8.50
2022-11-27T16:29:01.804Z,8.30
2022-11-27T16:31:30.382Z,8.30
2022-11-27T16:33:59.561Z,8.30
2022-11-27T16:36:28.465Z,8.20
2022-11-27T16:38:57.364Z,8.30
2022-11-27T16:41:26.776Z,8.20
2022-11-27T16:43:57.267Z,8.30
2022-11-27T16:46:31.147Z,8.50
2022-11-27T16:49:01.340Z,8.70
2022-11-27T16:51:32.725Z,8.80
2022-11-27T16:54:03.596Z,8.90
2022-11-27T16:56:33.842Z,8.90
2022-11-27T16:59:03.513Z,8.80
2022-11-27T17:01:37.098Z,8.80
2022-11-27T17:04:08.896Z,8.70
2022-11-27T17:06:39.217Z,8.70
2022-11-27T17:09:08.990Z,8.60
2022-11-27T17:11:40.208Z,8.60
2022-11-27T17:14:09.501Z,8.60
2022-11-27T17:16:41.100Z,8.60
2022-11-27T17:19:13.052Z,8.60
2022-11-27T17:21:42.145Z,8.40
2022-11-27T17:24:16.244Z,8.30
2022-11-27T17:26:46.463Z,8.20
2022-11-27T17:29:17.300Z,8.10
2022-11-27T17:31:46.000Z,8.00
2022-11-27T17:34:15.797Z,7.80
2022-11-27T17:36:45.233Z,7.90
2022-11-27T17:39:15.831Z,7.90
2022-11-27T17:41:45.191Z,7.90
2022-11-27T17:44:14.185Z,7.80
2022-11-27T17:46:44.670Z,7.60
2022-11-27T17:49:14.448Z,7.70
2022-11-27T17:51:42.966Z,7.70
2022-11-27T17:54:12.712Z,7.60
2022-11-27T17:56:41.476Z,7.70
2022-11-27T17:59:10.330Z,7.60
2022-11-27T18:01:38.910Z,7.70
2022-11-27T18:04:07.546Z,7.80
2022-11-27T18:06:36.136Z,7.80
2022-11-27T18:09:05.477Z,7.80
2022-11-27T18:11:34.380Z,7.70
2022-11-27T18:14:03.380Z,7.70
2022-11-27T18:16:34.903Z,7.70
2022-11-27T18:19:06.652Z,7.80
2022-11-27T18:21:36.283Z,7.70
2022-11-27T18:29:06.384Z,7.50
2022-11-27T18:31:39.919Z,7.60
2022-11-27T18:34:06.117Z,7.60
2022-11-27T18:36:34.711Z,7.60
2022-11-27T18:39:04.964Z,7.60
2022-11-27T18:41:34.610Z,7.70
2022-11-27T18:44:03.957Z,7.80
2022-11-27T18:46:32.552Z,7.80
2022-11-27T18:49:01.596Z,7.80
2022-11-27T18:51:30.128Z,7.70
2022-11-27T18:53:59.438Z,7.50
2022-11-27T18:56:30.831Z,7.40
2022-11-27T18:59:03.768Z,7.40
2022-11-27T19:01:40.878Z,7.50
2022-11-27T19:04:05.472Z,7.60
2022-11-27T19:06:35.929Z,7.70
2022-11-27T19:09:05.077Z,7.70
2022-11-27T19:11:38.172Z,7.90
2022-11-27T19:14:09.241Z,8.10
2022-11-27T19:16:42.217Z,7.90
2022-11-27T19:19:43.972Z,7.90
2022-11-27T19:21:41.836Z,7.70
2022-11-27T19:24:11.963Z,7.50
2022-11-27T19:26:40.662Z,7.40
2022-11-27T19:29:10.569Z,7.30
2022-11-27T19:31:41.420Z,7.20
2022-11-27T19:34:13.474Z,7.10
2022-11-27T19:36:41.926Z,7.10
2022-11-27T19:39:13.907Z,7.10
2022-11-27T19:41:44.624Z,7.10
2022-11-27T19:44:32.614Z,7.10
2022-11-27T19:47:01.141Z,7.10
2022-11-27T19:49:29.812Z,7.10
2022-11-27T19:51:58.429Z,7.10
2022-11-27T19:54:26.919Z,7.10
2022-11-27T19:56:55.395Z,7.20
2022-11-27T19:59:25.889Z,7.20
2022-11-27T20:01:55.761Z,7.20
2022-11-27T20:04:24.348Z,7.20
2022-11-27T20:06:53.526Z,7.30
2022-11-27T20:09:22.341Z,7.40
2022-11-27T20:11:50.852Z,7.40
2022-11-27T20:14:19.526Z,7.60
2022-11-27T20:16:48.190Z,7.70
2022-11-27T20:19:16.737Z,7.70
2022-11-27T20:21:45.358Z,7.70
2022-11-27T20:24:14.586Z,7.70
2022-11-27T20:26:43.410Z,7.60
2022-11-27T20:29:13.299Z,7.60
2022-11-27T20:31:44.581Z,7.60
2022-11-27T20:34:16.336Z,7.70
2022-11-27T20:36:44.936Z,7.60
2022-11-27T20:39:19.289Z,7.60
2022-11-27T20:41:43.919Z,7.60
2022-11-27T20:44:13.287Z,7.70
2022-11-27T20:46:41.817Z,7.70
2022-11-27T20:49:10.846Z,7.60
2022-11-27T20:51:41.509Z,7.70
2022-11-27T20:54:12.733Z,7.70
2022-11-27T20:56:43.315Z,7.70
2022-11-27T20:59:12.805Z,7.60
2022-11-27T21:01:44.016Z,7.60
2022-11-27T21:04:21.879Z,7.70
2022-11-27T21:06:51.760Z,7.70
2022-11-27T21:09:21.198Z,7.60
2022-11-27T21:11:50.328Z,7.70
2022-11-27T21:14:19.355Z,7.50
2022-11-27T21:16:50.092Z,7.50
2022-11-27T21:19:24.932Z,7.60
2022-11-27T21:21:54.377Z,7.60
2022-11-27T21:24:26.287Z,7.50
2022-11-27T21:26:54.971Z,7.40
2022-11-27T21:29:25.763Z,7.40
2022-11-27T21:31:55.198Z,7.40
2022-11-27T21:34:24.479Z,7.30
2022-11-27T21:36:53.195Z,7.40
2022-11-27T21:39:22.056Z,7.50
2022-11-27T21:41:52.671Z,7.50
2022-11-27T21:44:22.480Z,7.40
2022-11-27T21:46:52.176Z,7.20
2022-11-27T21:49:22.132Z,7.20
2022-11-27T21:51:54.611Z,7.20
2022-11-27T21:54:23.736Z,7.20
2022-11-27T21:56:53.782Z,7.30
2022-11-27T21:59:22.299Z,7.60
2022-11-27T22:01:51.779Z,7.70
2022-11-27T22:04:22.037Z,7.70
2022-11-27T22:06:50.803Z,7.80
2022-11-27T22:09:19.763Z,7.80
2022-11-27T22:11:48.816Z,7.90
2022-11-27T22:14:17.369Z,7.90
2022-11-27T22:16:47.111Z,8.00
2022-11-27T22:19:16.180Z,8.00
2022-11-27T22:21:45.898Z,8.10
2022-11-27T22:24:19.429Z,8.00
2022-11-27T22:26:45.267Z,8.10
2022-11-27T22:29:13.784Z,8.10
2022-11-27T22:31:42.480Z,8.30
2022-11-27T22:34:10.984Z,8.20
2022-11-27T22:36:39.562Z,8.20
2022-11-27T22:39:09.156Z,8.30
2022-11-27T22:41:39.526Z,8.30
2022-11-27T22:44:11.137Z,8.30
2022-11-27T22:46:42.318Z,8.40
2022-11-27T22:49:13.533Z,8.40
2022-11-27T22:51:42.517Z,8.30
2022-11-27T22:54:14.896Z,8.40
2022-11-27T22:56:45.428Z,8.40
2022-11-27T23:01:44.533Z,8.30
2022-11-27T23:04:13.123Z,8.50
2022-11-27T23:06:41.577Z,8.40
2022-11-27T23:09:10.645Z,8.50
2022-11-27T23:11:39.420Z,8.50
2022-11-27T23:14:08.134Z,8.50
2022-11-27T23:16:36.835Z,8.50
2022-11-27T23:19:05.577Z,8.40
2022-11-27T23:21:35.728Z,8.00
2022-11-27T23:24:09.625Z,7.90
2022-11-27T23:26:38.203Z,7.80
2022-11-27T23:29:06.800Z,7.50
2022-11-27T23:31:36.246Z,7.30
2022-11-27T23:34:08.266Z,6.90
2022-11-27T23:36:37.276Z,6.80
2022-11-27T23:39:08.371Z,6.70
2022-11-27T23:41:38.565Z,6.60
2022-11-27T23:44:07.665Z,6.70
2022-11-27T23:46:36.166Z,6.60
2022-11-27T23:49:04.624Z,6.50
2022-11-27T23:51:33.987Z,6.50
2022-11-27T23:54:04.455Z,6.60
2022-11-27T23:56:33.696Z,6.60
2022-11-27T23:59:02.585Z,6.60
